Time;durP1;ratioP1;P1;durP2;ratioP2;P2;SDS_P1;SDS_P2;PMS_P1;PMS_P2;Temp;Humidity;BMP_temperature;BMP_pressure;BME280_temperature;BME280_humidity;BME280_pressure;Samples;Min_cycle;Max_cycle;Signal;HPM_P1;HPM_P2
2021/08/01 00:00:14;;;;;;;;;;;;;;;28.33;51.17;99334.03;5091526;28;19912;-50
2021/08/01 00:02:40;;;;;;;;;;;;;;;28.50;50.76;99336.66;5091233;28;20003;-48
2021/08/01 00:05:06;;;;;;;;;;;;;;;28.73;49.83;99348.13;5091231;28;19923;-49
2021/08/01 00:07:33;;;;;;;;;;;;;;;28.89;49.85;99352.97;5091081;28;19916;-49
2021/08/01 00:09:58;;;;;;;;;;;;;;;28.87;49.95;99356.06;5091274;28;20553;-51
2021/08/01 00:12:24;;;;;;;;;;;;;;;29.06;49.51;99366.50;5091221;28;20004;-49
2021/08/01 00:14:49;;;;;;;;;;;;;;;29.75;47.84;99366.97;5091063;28;19912;-49
2021/08/01 00:17:14;;;;;;;;;;;;;;;29.76;47.62;99385.84;5091026;28;19923;-49
2021/08/01 00:19:40;;;;;;;;;;;;;;;29.74;48.11;99377.16;5090649;28;19978;-49
2021/08/01 00:22:05;;;;;;;;;;;;;;;30.14;46.80;99381.97;5090997;28;19919;-49
2021/08/01 00:24:30;;;;;;;;;;;;;;;30.50;46.44;99372.13;5090801;28;19922;-49
2021/08/01 00:26:55;;;;;;;;;;;;;;;30.31;46.68;99369.94;5090993;28;19912;-50
2021/08/01 00:29:21;;;;;;;;;;;;;;;29.50;49.08;99355.16;5090876;28;20379;-50
2021/08/01 00:31:46;;;;;;;;;;;;;;;29.67;48.85;99363.16;5090653;28;19916;-49
2021/08/01 00:34:11;;;;;;;;;;;;;;;29.94;48.29;99360.94;5090738;28;19912;-47
2021/08/01 00:36:36;;;;;;;;;;;;;;;30.46;46.48;99349.25;5090542;28;20065;-51
2021/08/01 00:39:02;;;;;;;;;;;;;;;30.24;47.47;99360.72;5090826;28;20348;-46
2021/08/01 00:41:27;;;;;;;;;;;;;;;30.26;47.70;99358.41;5090803;28;20004;-48
2021/08/01 00:43:52;;;;;;;;;;;;;;;30.25;47.43;99357.59;5103007;28;20072;-49
2021/08/01 00:46:18;;;;;;;;;;;;;;;30.68;46.10;99364.41;5110885;28;19912;-50
2021/08/01 00:48:43;;;;;;;;;;;;;;;30.34;47.23;99361.03;5110507;28;19994;-48
2021/08/01 00:51:08;;;;;;;;;;;;;;;30.29;47.37;99355.78;5109965;28;19912;-48
2021/08/01 00:53:33;;;;;;;;;;;;;;;30.45;47.42;99352.34;5109391;28;19918;-47
2021/08/01 00:55:59;;;;;;;;;;;;;;;30.60;46.46;99349.69;5109579;28;19912;-47
2021/08/01 00:58:24;;;;;;;;;;;;;;;30.19;47.64;99350.75;5110743;28;19919;-48
2021/08/01 01:03:23;;;;;;;;;;;;;;;30.39;46.81;99344.34;5111780;28;19911;-50
2021/08/01 01:05:55;;;;;;;;;;;;;;;30.76;45.87;99338.75;5110149;28;19911;-47
2021/08/01 01:08:22;;;;;;;;;;;;;;;30.27;47.31;99338.03;5111662;28;19912;-50
2021/08/01 01:10:47;;;;;;;;;;;;;;;30.27;47.08;99338.84;5110172;28;19963;-47
2021/08/01 01:13:18;;;;;;;;;;;;;;;30.39;46.14;99336.13;5110163;28;19955;-48
2021/08/01 01:15:47;;;;;;;;;;;;;;;30.66;45.06;99338.47;5110038;28;19922;-49
2021/08/01 01:18:32;;;;;;;;;;;;;;;30.46;45.52;99319.03;5111076;28;19927;-48
2021/08/01 01:20:58;;;;;;;;;;;;;;;30.43;45.55;99327.19;5110572;28;20029;-47
2021/08/01 01:23:26;;;;;;;;;;;;;;;30.78;44.29;99328.22;5111151;28;20329;-48
2021/08/01 01:25:55;;;;;;;;;;;;;;;30.85;43.71;99332.34;5106298;28;20412;-47
2021/08/01 01:28:22;;;;;;;;;;;;;;;30.25;44.36;99334.84;5089416;28;19919;-48
2021/08/01 01:31:08;;;;;;;;;;;;;;;30.37;43.60;99330.19;5089460;28;19912;-47
2021/08/01 01:33:33;;;;;;;;;;;;;;;30.69;42.62;99333.06;5079285;28;19912;-47
2021/08/01 01:35:58;;;;;;;;;;;;;;;30.83;41.54;99332.69;5090737;28;20348;-51
2021/08/01 01:38:24;;;;;;;;;;;;;;;30.44;42.24;99321.34;5090764;28;19974;-47
2021/08/01 01:40:53;;;;;;;;;;;;;;;30.30;42.40;99327.19;5091217;28;19912;-46
2021/08/01 01:43:19;;;;;;;;;;;;;;;30.40;43.95;99332.22;5097411;28;20005;-46
2021/08/01 01:45:44;;;;;;;;;;;;;;;30.37;45.37;99321.94;5110007;28;19912;-48
2021/08/01 01:48:10;;;;;;;;;;;;;;;30.32;45.26;99319.44;5109363;28;20351;-47
2021/08/01 01:50:35;;;;;;;;;;;;;;;30.19;46.57;99321.34;5111104;28;19945;-49
2021/08/01 01:53:00;;;;;;;;;;;;;;;30.34;45.93;99328.13;5109793;28;20314;-47
2021/08/01 01:55:28;;;;;;;;;;;;;;;30.50;44.49;99321.91;5110659;28;19912;-50
2021/08/01 01:57:53;;;;;;;;;;;;;;;30.24;43.65;99319.53;5109561;28;19916;-48
2021/08/01 02:00:18;;;;;;;;;;;;;;;29.91;43.30;99320.47;5110892;28;19969;-47
2021/08/01 02:02:43;;;;;;;;;;;;;;;30.15;42.34;99320.47;5114156;28;19974;-47
2021/08/01 02:05:09;;;;;;;;;;;;;;;30.44;41.86;99312.31;5114556;27;19930;-50
2021/08/01 02:07:35;;;;;;;;;;;;;;;30.18;42.26;99313.50;5114451;28;19935;-48
2021/08/01 02:10:04;;;;;;;;;;;;;;;30.10;41.92;99317.97;5114328;28;20310;-47
2021/08/01 02:12:29;;;;;;;;;;;;;;;30.01;41.59;99311.81;5114437;28;19923;-50
2021/08/01 02:15:00;;;;;;;;;;;;;;;30.28;40.83;99324.00;5114667;28;19912;-50
2021/08/01 02:17:46;;;;;;;;;;;;;;;30.13;40.89;99322.75;5113131;28;19920;-50
2021/08/01 02:20:13;;;;;;;;;;;;;;;29.90;41.41;99319.69;5112874;28;20398;-49
2021/08/01 02:22:38;;;;;;;;;;;;;;;29.68;41.43;99320.09;5114355;28;20002;-49
2021/08/01 02:25:03;;;;;;;;;;;;;;;29.77;41.28;99332.56;5114020;28;20350;-50
2021/08/01 02:27:29;;;;;;;;;;;;;;;29.38;42.22;99328.53;5112618;28;20416;-50
2021/08/01 02:29:55;;;;;;;;;;;;;;;29.41;42.08;99338.78;5098731;28;20057;-49
2021/08/01 02:32:20;;;;;;;;;;;;;;;29.48;42.00;99328.06;5092265;28;19944;-52
2021/08/01 02:34:45;;;;;;;;;;;;;;;29.68;41.66;99340.06;5093796;28;19918;-51
2021/08/01 02:37:11;;;;;;;;;;;;;;;30.04;40.72;99348.69;5092358;28;19969;-51
2021/08/01 02:39:36;;;;;;;;;;;;;;;29.81;41.08;99344.47;5093819;28;20359;-49
2021/08/01 02:42:01;;;;;;;;;;;;;;;29.53;41.55;99349.78;5093459;28;19919;-49
2021/08/01 02:44:31;;;;;;;;;;;;;;;29.39;41.69;99347.34;5091395;28;19999;-48
2021/08/01 02:46:56;;;;;;;;;;;;;;;29.50;41.58;99353.19;5093117;28;19962;-51
2021/08/01 02:49:22;;;;;;;;;;;;;;;29.84;40.68;99362.19;5091978;28;19916;-50
2021/08/01 02:51:51;;;;;;;;;;;;;;;29.26;41.79;99362.16;5093326;28;19912;-50
2021/08/01 02:54:16;;;;;;;;;;;;;;;29.02;42.33;99358.16;5093189;28;19969;-50
2021/08/01 02:56:42;;;;;;;;;;;;;;;29.08;42.52;99357.97;5093012;28;19916;-48
2021/08/01 02:59:07;;;;;;;;;;;;;;;29.17;42.23;99364.19;5091735;28;20358;-50
2021/08/01 03:01:32;;;;;;;;;;;;;;;29.28;42.03;99370.81;5092437;28;19969;-49
2021/08/01 03:03:58;;;;;;;;;;;;;;;29.05;42.74;99367.63;5091415;28;20352;-50
2021/08/01 03:06:24;;;;;;;;;;;;;;;28.92;43.27;99364.06;5092818;28;19958;-49
2021/08/01 03:08:49;;;;;;;;;;;;;;;28.91;43.47;99367.13;5091810;28;20009;-51
2021/08/01 03:11:20;;;;;;;;;;;;;;;29.02;42.98;99365.59;5093039;28;19930;-51
2021/08/01 03:13:46;;;;;;;;;;;;;;;29.46;41.87;99363.25;5091937;28;20049;-52
2021/08/01 03:16:11;;;;;;;;;;;;;;;28.93;43.33;99367.59;5091550;28;20367;-49
2021/08/01 03:18:36;;;;;;;;;;;;;;;28.65;44.01;99368.94;5092817;28;20403;-50
2021/08/01 03:21:02;;;;;;;;;;;;;;;28.77;43.86;99362.72;5092329;28;19924;-48
2021/08/01 03:23:27;;;;;;;;;;;;;;;28.83;43.81;99355.91;5091356;28;19912;-51
2021/08/01 03:25:52;;;;;;;;;;;;;;;29.22;42.68;99361.22;5092900;28;20398;-52
2021/08/01 03:28:17;;;;;;;;;;;;;;;28.74;43.92;99363.38;5092661;28;19919;-51
2021/08/01 03:30:43;;;;;;;;;;;;;;;28.60;44.12;99358.19;5092794;28;19916;-50
2021/08/01 03:33:08;;;;;;;;;;;;;;;28.69;44.04;99360.06;5092572;28;19912;-50
2021/08/01 03:35:33;;;;;;;;;;;;;;;28.71;44.06;99358.59;5092603;28;19973;-49
2021/08/01 03:37:58;;;;;;;;;;;;;;;29.15;42.90;99356.31;5092450;28;19978;-50
2021/08/01 03:40:24;;;;;;;;;;;;;;;28.77;43.82;99345.50;5092551;28;19916;-48
2021/08/01 03:42:49;;;;;;;;;;;;;;;28.55;44.43;99343.91;5096494;28;19968;-48
2021/08/01 03:45:14;;;;;;;;;;;;;;;28.65;44.09;99351.69;5100642;28;20375;-50
2021/08/01 03:47:40;;;;;;;;;;;;;;;28.62;44.23;99346.91;5092203;28;19912;-49
2021/08/01 03:50:05;;;;;;;;;;;;;;;28.70;44.12;99346.03;5092262;28;19935;-50
2021/08/01 03:52:31;;;;;;;;;;;;;;;28.55;44.76;99354.84;5091791;28;20303;-51
2021/08/01 03:54:56;;;;;;;;;;;;;;;28.37;45.31;99352.22;5092127;28;19931;-51
2021/08/01 03:57:21;;;;;;;;;;;;;;;28.66;44.70;99350.59;5092236;28;20368;-50
2021/08/01 03:59:46;;;;;;;;;;;;;;;29.19;43.75;99345.47;5091869;28;19913;-51
2021/08/01 04:02:12;;;;;;;;;;;;;;;29.38;43.23;99345.75;5092103;28;19919;-48
2021/08/01 04:04:38;;;;;;;;;;;;;;;29.29;43.16;99336.03;5092406;28;20288;-48
2021/08/01 04:07:03;;;;;;;;;;;;;;;29.24;43.59;99345.25;5090805;28;19926;-49
2021/08/01 04:09:29;;;;;;;;;;;;;;;29.63;42.86;99335.63;5092152;28;19918;-51
2021/08/01 04:11:54;;;;;;;;;;;;;;;30.00;41.64;99343.09;5091959;28;20007;-49
2021/08/01 04:14:19;;;;;;;;;;;;;;;29.91;42.10;99345.16;5092218;28;19962;-48
2021/08/01 04:16:45;;;;;;;;;;;;;;;29.65;42.27;99329.03;5091889;28;19916;-50
2021/08/01 04:19:10;;;;;;;;;;;;;;;29.74;42.11;99333.28;5091461;28;20438;-51
2021/08/01 04:21:39;;;;;;;;;;;;;;;30.22;40.91;99333.59;5091839;28;19998;-50
2021/08/01 04:24:04;;;;;;;;;;;;;;;30.78;39.97;99344.69;5091930;28;20255;-49
2021/08/01 04:26:30;;;;;;;;;;;;;;;30.58;39.70;99337.47;5091794;28;19912;-36
2021/08/01 04:28:55;;;;;;;;;;;;;;;30.51;39.99;99342.72;5091635;28;19984;-37
2021/08/01 04:31:20;;;;;;;;;;;;;;;30.83;39.72;99354.66;5091240;28;19921;-37
2021/08/01 04:33:46;;;;;;;;;;;;;;;31.34;38.64;99363.16;5091210;28;19919;-37
2021/08/01 04:36:11;;;;;;;;;;;;;;;31.32;37.99;99370.13;5090904;28;19919;-37
2021/08/01 04:38:36;;;;;;;;;;;;;;;31.15;38.92;99368.53;5090842;28;19922;-36
2021/08/01 04:41:02;;;;;;;;;;;;;;;31.38;38.22;99371.50;5091207;28;19915;-37
2021/08/01 04:43:27;;;;;;;;;;;;;;;31.58;37.53;99379.88;5091302;28;20006;-37
2021/08/01 04:45:52;;;;;;;;;;;;;;;31.65;37.26;99378.09;5090984;28;19997;-37
2021/08/01 04:48:17;;;;;;;;;;;;;;;31.81;36.67;99375.34;5090757;28;19955;-37
2021/08/01 04:50:43;;;;;;;;;;;;;;;31.75;37.02;99374.03;5090740;28;19935;-37
2021/08/01 04:53:08;;;;;;;;;;;;;;;32.12;36.44;99373.75;5089116;28;19912;-37
2021/08/01 04:55:33;;;;;;;;;;;;;;;32.57;35.80;99368.91;5090695;28;19999;-37
2021/08/01 04:57:59;;;;;;;;;;;;;;;32.85;35.30;99371.47;5090370;28;19965;-37
2021/08/01 05:00:24;;;;;;;;;;;;;;;32.51;35.94;99365.59;5089172;28;19920;-37
2021/08/01 05:02:49;;;;;;;;;;;;;;;32.64;35.84;99367.09;5090175;28;19991;-37
2021/08/01 05:05:14;;;;;;;;;;;;;;;32.64;35.61;99367.09;5090575;28;19912;-37
2021/08/01 05:07:40;;;;;;;;;;;;;;;33.17;34.95;99361.09;5090535;28;20376;-37
2021/08/01 05:10:05;;;;;;;;;;;;;;;33.37;34.42;99370.13;5090123;28;19916;-37
2021/08/01 05:12:30;;;;;;;;;;;;;;;33.00;35.06;99367.03;5090568;28;19920;-40
2021/08/01 05:14:56;;;;;;;;;;;;;;;33.27;34.78;99359.69;5090663;28;20303;-37
2021/08/01 05:17:21;;;;;;;;;;;;;;;33.26;34.54;99366.34;5088890;28;19927;-37
2021/08/01 05:19:46;;;;;;;;;;;;;;;33.35;34.76;99355.91;5090320;28;20395;-37
2021/08/01 05:22:12;;;;;;;;;;;;;;;33.42;34.69;99366.28;5090542;28;19919;-37
2021/08/01 05:24:37;;;;;;;;;;;;;;;33.72;34.43;99371.13;5090594;28;20268;-37
2021/08/01 05:27:02;;;;;;;;;;;;;;;34.36;33.47;99374.13;5090858;28;20391;-37
2021/08/01 05:29:30;;;;;;;;;;;;;;;34.54;33.32;99375.19;5089874;28;21275;-37
2021/08/01 05:31:55;;;;;;;;;;;;;;;34.39;33.62;99376.94;5090680;28;19913;-37
2021/08/01 05:34:21;;;;;;;;;;;;;;;34.63;33.43;99392.28;5090609;28;19965;-36
2021/08/01 05:36:46;;;;;;;;;;;;;;;34.64;33.51;99387.53;5092475;28;19928;-37
2021/08/01 05:39:11;;;;;;;;;;;;;;;34.46;33.24;99395.56;5094790;28;19955;-37
2021/08/01 05:41:36;;;;;;;;;;;;;;;34.59;33.31;99394.16;5094915;28;19916;-37
2021/08/01 05:44:02;;;;;;;;;;;;;;;34.85;33.21;99395.34;5093901;28;19912;-37
2021/08/01 05:46:27;;;;;;;;;;;;;;;35.27;32.57;99397.03;5093918;28;19951;-37
2021/08/01 05:48:52;;;;;;;;;;;;;;;35.81;31.23;99395.63;5094087;28;20334;-37
2021/08/01 05:51:20;;;;;;;;;;;;;;;35.80;31.33;99388.47;5093694;28;20347;-37
2021/08/01 05:53:45;;;;;;;;;;;;;;;35.79;31.20;99388.84;5093625;28;19916;-37
2021/08/01 05:56:10;;;;;;;;;;;;;;;36.07;31.10;99390.25;5093301;28;19919;-38
2021/08/01 05:58:36;;;;;;;;;;;;;;;36.60;30.06;99390.63;5093603;28;19963;-36
2021/08/01 06:01:08;;;;;;;;;;;;;;;36.28;30.89;99390.44;5092375;28;20064;-37
2021/08/01 06:03:33;;;;;;;;;;;;;;;36.27;29.99;99388.84;5093766;28;19912;-37
2021/08/01 06:06:17;;;;;;;;;;;;;;;36.72;29.39;99391.50;5093542;28;19916;-37
2021/08/01 06:08:43;;;;;;;;;;;;;;;37.37;28.91;99390.53;5093662;28;19912;-37
2021/08/01 06:11:09;;;;;;;;;;;;;;;36.96;29.30;99388.03;5093477;28;20360;-37
2021/08/01 06:13:34;;;;;;;;;;;;;;;37.03;29.41;99387.25;5093453;28;19927;-37
2021/08/01 06:15:59;;;;;;;;;;;;;;;37.01;28.87;99386.06;5093385;28;19947;-37
2021/08/01 06:18:25;;;;;;;;;;;;;;;37.17;28.78;99400.41;5093145;28;20356;-37
2021/08/01 06:20:50;;;;;;;;;;;;;;;37.48;28.27;99389.75;5093021;28;20240;-37
2021/08/01 06:23:15;;;;;;;;;;;;;;;37.53;28.52;99386.63;5093559;28;19912;-37
2021/08/01 06:25:41;;;;;;;;;;;;;;;37.48;28.15;99375.91;5093351;28;20003;-37
2021/08/01 06:28:06;;;;;;;;;;;;;;;37.64;28.30;99384.66;5093041;28;19923;-37
2021/08/01 06:30:31;;;;;;;;;;;;;;;38.12;28.00;99373.16;5091930;28;20405;-37
2021/08/01 06:32:56;;;;;;;;;;;;;;;38.12;27.72;99377.94;5093174;28;19969;-37
2021/08/01 06:35:22;;;;;;;;;;;;;;;38.65;27.38;99370.66;5081182;28;19919;-37
2021/08/01 06:37:47;;;;;;;;;;;;;;;38.62;27.43;99363.91;5072517;28;19951;-38
2021/08/01 06:40:12;;;;;;;;;;;;;;;39.39;26.95;99365.13;5072572;28;19912;-37
2021/08/01 06:42:38;;;;;;;;;;;;;;;38.62;27.73;99363.13;5083121;28;20441;-37
2021/08/01 06:45:03;;;;;;;;;;;;;;;38.55;27.33;99361.16;5092229;28;20371;-38
2021/08/01 06:47:28;;;;;;;;;;;;;;;38.94;27.13;99354.66;5090959;28;20425;-50
2021/08/01 06:49:54;;;;;;;;;;;;;;;39.65;25.94;99355.41;5091756;28;20055;-50
2021/08/01 06:52:19;;;;;;;;;;;;;;;39.61;25.83;99365.78;5091929;28;19912;-37
2021/08/01 06:54:44;;;;;;;;;;;;;;;39.01;26.76;99362.97;5092013;28;19920;-37
2021/08/01 06:57:09;;;;;;;;;;;;;;;38.57;27.04;99360.75;5092129;28;20002;-45
2021/08/01 06:59:35;;;;;;;;;;;;;;;39.03;26.54;99362.56;5091977;28;19916;-38
2021/08/01 07:02:00;;;;;;;;;;;;;;;39.08;26.74;99356.56;5092303;28;19919;-37
2021/08/01 07:04:25;;;;;;;;;;;;;;;39.05;26.53;99357.38;5091946;28;19927;-38
2021/08/01 07:06:51;;;;;;;;;;;;;;;39.41;26.46;99352.41;5091844;28;20411;-38
2021/08/01 07:09:16;;;;;;;;;;;;;;;39.60;26.10;99348.28;5091910;28;20036;-37
2021/08/01 07:11:41;;;;;;;;;;;;;;;40.01;24.86;99346.75;5092451;28;19924;-38
2021/08/01 07:14:06;;;;;;;;;;;;;;;39.57;26.19;99340.75;5092422;28;20576;-37
2021/08/01 07:16:32;;;;;;;;;;;;;;;39.83;25.46;99342.13;5091564;28;19922;-51
2021/08/01 07:18:57;;;;;;;;;;;;;;;40.14;24.64;99344.25;5091881;28;19916;-51
2021/08/01 07:21:22;;;;;;;;;;;;;;;41.11;23.36;99335.50;5091133;28;20390;-51
2021/08/01 07:23:48;;;;;;;;;;;;;;;40.64;23.98;99343.69;5091526;28;20304;-51
2021/08/01 07:26:13;;;;;;;;;;;;;;;39.67;24.70;99342.66;5091272;28;20116;-49
2021/08/01 07:28:38;;;;;;;;;;;;;;;40.13;24.36;99335.06;5088517;28;19912;-49
2021/08/01 07:31:04;;;;;;;;;;;;;;;40.41;24.01;99333.22;5091071;28;19912;-38
2021/08/01 07:33:29;;;;;;;;;;;;;;;40.28;24.15;99332.16;5091779;28;19939;-38
2021/08/01 07:35:57;;;;;;;;;;;;;;;40.40;23.61;99331.63;5091820;28;19967;-39
2021/08/01 07:38:24;;;;;;;;;;;;;;;40.68;23.20;99332.47;5091670;28;20361;-38
2021/08/01 07:40:49;;;;;;;;;;;;;;;41.07;22.86;99328.38;5091550;28;20396;-39
2021/08/01 07:43:15;;;;;;;;;;;;;;;41.10;23.11;99335.91;5093038;28;20011;-51
2021/08/01 07:45:40;;;;;;;;;;;;;;;40.87;23.44;99333.84;5091071;28;19912;-48
2021/08/01 07:48:05;;;;;;;;;;;;;;;40.38;23.30;99329.25;5090902;28;19943;-50
2021/08/01 07:50:30;;;;;;;;;;;;;;;40.71;23.61;99331.63;5091461;28;19912;-51
2021/08/01 07:52:56;;;;;;;;;;;;;;;41.13;22.67;99327.50;5091416;28;19912;-49
2021/08/01 07:55:21;;;;;;;;;;;;;;;40.97;23.38;99325.31;5091217;28;19916;-51
2021/08/01 07:57:46;;;;;;;;;;;;;;;41.04;22.49;99330.78;5091011;28;20006;-51
2021/08/01 08:00:12;;;;;;;;;;;;;;;41.00;22.74;99329.28;5090656;28;19965;-51
2021/08/01 08:02:37;;;;;;;;;;;;;;;41.53;22.43;99327.69;5090549;28;19912;-50
2021/08/01 08:05:03;;;;;;;;;;;;;;;41.33;22.50;99326.81;5090626;28;19919;-51
2021/08/01 08:07:28;;;;;;;;;;;;;;;41.40;22.56;99319.13;5090947;28;19989;-47
2021/08/01 08:09:54;;;;;;;;;;;;;;;41.59;21.72;99316.81;5090840;28;19916;-50
2021/08/01 08:12:19;;;;;;;;;;;;;;;42.27;21.43;99324.00;5090402;28;20360;-50
2021/08/01 08:14:45;;;;;;;;;;;;;;;42.08;21.81;99321.97;5090908;28;19923;-52
2021/08/01 08:17:10;;;;;;;;;;;;;;;42.10;21.84;99325.13;5090675;28;19931;-51
2021/08/01 08:19:35;;;;;;;;;;;;;;;42.02;21.78;99320.88;5090400;28;19928;-50
2021/08/01 08:22:01;;;;;;;;;;;;;;;42.03;21.97;99319.66;5090679;28;19988;-50
2021/08/01 08:24:26;;;;;;;;;;;;;;;41.42;23.02;99313.13;5089225;28;20371;-52
2021/08/01 08:26:51;;;;;;;;;;;;;;;41.65;22.44;99322.75;5089927;28;19952;-49
2021/08/01 08:29:17;;;;;;;;;;;;;;;42.08;21.77;99319.97;5090037;28;19941;-52
2021/08/01 08:31:47;;;;;;;;;;;;;;;42.70;20.67;99319.53;5089861;28;20424;-52
2021/08/01 08:34:12;;;;;;;;;;;;;;;42.56;20.97;99318.63;5089791;28;19912;-51
2021/08/01 08:36:37;;;;;;;;;;;;;;;42.26;20.98;99299.28;5090966;28;20056;-50
2021/08/01 08:39:03;;;;;;;;;;;;;;;42.08;21.05;99308.00;5091120;28;19911;-52
2021/08/01 08:41:28;;;;;;;;;;;;;;;42.57;20.17;99303.44;5091178;28;19913;-50
2021/08/01 08:43:53;;;;;;;;;;;;;;;43.26;19.94;99305.47;5101880;28;19911;-51
2021/08/01 08:46:18;;;;;;;;;;;;;;;43.04;20.06;99301.63;5111141;28;20025;-52
2021/08/01 08:48:44;;;;;;;;;;;;;;;42.75;19.95;99303.03;5109999;28;19912;-49
2021/08/01 08:51:09;;;;;;;;;;;;;;;42.41;20.20;99283.00;5110842;28;19911;-51
2021/08/01 08:53:46;;;;;;;;;;;;;;;42.82;20.22;99282.50;5111311;28;20046;-50
2021/08/01 08:56:12;;;;;;;;;;;;;;;42.78;19.96;99284.59;5110618;28;20299;-50
2021/08/01 08:58:37;;;;;;;;;;;;;;;42.59;19.97;99286.22;5109351;28;19990;-51
2021/08/01 09:01:03;;;;;;;;;;;;;;;42.92;19.68;99281.50;5109343;28;20049;-50
2021/08/01 09:03:29;;;;;;;;;;;;;;;43.36;18.62;99281.28;5110916;28;20251;-49
2021/08/01 09:05:55;;;;;;;;;;;;;;;43.01;19.20;99280.88;5106756;28;20159;-48
2021/08/01 09:08:20;;;;;;;;;;;;;;;42.51;18.94;99276.41;5090615;28;20002;-50
2021/08/01 09:10:45;;;;;;;;;;;;;;;42.61;18.25;99269.78;5090838;28;20357;-51
2021/08/01 09:13:11;;;;;;;;;;;;;;;43.05;18.41;99269.59;5094638;28;19912;-51
2021/08/01 09:15:36;;;;;;;;;;;;;;;43.47;17.99;99276.19;5093385;28;19912;-50
2021/08/01 09:18:01;;;;;;;;;;;;;;;43.09;18.42;99270.31;5094833;28;19920;-50
2021/08/01 09:20:30;;;;;;;;;;;;;;;43.37;17.43;99265.25;5093107;28;19931;-51
2021/08/01 09:22:58;;;;;;;;;;;;;;;43.49;18.01;99261.75;5094664;28;19916;-51
2021/08/01 09:25:27;;;;;;;;;;;;;;;43.75;18.38;99267.50;5094524;28;19912;-50
2021/08/01 09:27:52;;;;;;;;;;;;;;;43.57;18.47;99265.16;5094188;28;20372;-51
2021/08/01 09:30:18;;;;;;;;;;;;;;;43.60;18.45;99264.25;5094180;28;19918;-51
2021/08/01 09:32:47;;;;;;;;;;;;;;;43.06;18.85;99263.56;5094526;28;19923;-52
2021/08/01 09:35:18;;;;;;;;;;;;;;;43.24;18.96;99260.34;5094237;28;20406;-49
2021/08/01 09:37:44;;;;;;;;;;;;;;;43.42;18.54;99265.50;5094410;28;19916;-50
2021/08/01 09:40:10;;;;;;;;;;;;;;;43.14;18.47;99264.19;5092758;28;20002;-51
2021/08/01 09:42:53;;;;;;;;;;;;;;;43.11;19.01;99262.28;5096342;28;19995;-51
2021/08/01 09:45:21;;;;;;;;;;;;;;;43.48;17.73;99255.34;5114579;28;19978;-51
2021/08/01 09:47:47;;;;;;;;;;;;;;;43.63;16.83;99250.16;5114677;28;19912;-50
2021/08/01 09:50:13;;;;;;;;;;;;;;;43.41;16.71;99251.94;5114469;28;20435;-51
2021/08/01 09:52:38;;;;;;;;;;;;;;;43.47;17.00;99241.78;5099429;28;19919;-51
2021/08/01 09:55:04;;;;;;;;;;;;;;;44.09;16.75;99241.72;5094040;28;19912;-49
2021/08/01 09:57:30;;;;;;;;;;;;;;;44.45;16.04;99235.84;5093892;28;19916;-51
2021/08/01 10:00:07;;;;;;;;;;;;;;;44.00;17.32;99224.75;5093628;28;20294;-51
2021/08/01 10:02:36;;;;;;;;;;;;;;;43.67;17.48;99228.44;5093475;28;19947;-50
2021/08/01 10:05:13;;;;;;;;;;;;;;;43.42;17.43;99220.72;5093812;28;19912;-51
2021/08/01 10:07:40;;;;;;;;;;;;;;;43.92;17.03;99224.97;5093818;28;19969;-50
2021/08/01 10:10:07;;;;;;;;;;;;;;;43.83;17.25;99215.63;5092070;28;19916;-51
2021/08/01 10:12:33;;;;;;;;;;;;;;;43.52;16.22;99210.47;5092164;28;19918;-50
2021/08/01 10:14:58;;;;;;;;;;;;;;;43.30;16.41;99208.25;5091858;28;19912;-49
2021/08/01 10:17:25;;;;;;;;;;;;;;;44.11;15.93;99202.84;5093168;28;19920;-50
2021/08/01 10:19:50;;;;;;;;;;;;;;;42.84;16.83;99190.56;5091624;28;19925;-49
2021/08/01 10:22:15;;;;;;;;;;;;;;;43.25;17.10;99191.16;5092900;28;19981;-51
2021/08/01 10:24:41;;;;;;;;;;;;;;;43.20;16.42;99186.09;5092299;28;19935;-50
2021/08/01 10:27:07;;;;;;;;;;;;;;;43.98;15.52;99185.19;5092078;28;19911;-49
2021/08/01 10:29:36;;;;;;;;;;;;;;;43.49;16.38;99180.56;5093335;28;19913;-49
2021/08/01 10:32:06;;;;;;;;;;;;;;;43.76;16.60;99179.44;5091572;28;20053;-50
2021/08/01 10:34:36;;;;;;;;;;;;;;;43.96;17.21;99182.84;5091616;28;19920;-49
2021/08/01 10:37:03;;;;;;;;;;;;;;;44.36;16.50;99162.84;5092720;28;20307;-49
2021/08/01 10:39:29;;;;;;;;;;;;;;;44.58;16.14;99167.81;5093065;28;19912;-50
2021/08/01 10:41:54;;;;;;;;;;;;;;;43.94;16.79;99165.69;5092910;28;20316;-48
2021/08/01 10:44:19;;;;;;;;;;;;;;;44.09;16.17;99158.44;5091181;28;20322;-49
2021/08/01 10:46:44;;;;;;;;;;;;;;;44.09;17.28;99155.66;5090222;28;20022;-50
2021/08/01 10:49:10;;;;;;;;;;;;;;;43.96;17.33;99152.00;5091424;28;20011;-49
2021/08/01 10:51:35;;;;;;;;;;;;;;;43.49;17.21;99146.97;5093035;28;20380;-49
2021/08/01 10:54:15;;;;;;;;;;;;;;;43.76;17.31;99141.00;5092658;28;20281;-49
2021/08/01 10:56:41;;;;;;;;;;;;;;;44.26;16.80;99141.53;5092493;28;20367;-49
2021/08/01 10:59:06;;;;;;;;;;;;;;;44.68;16.40;99138.63;5092548;28;20007;-51
2021/08/01 11:01:32;;;;;;;;;;;;;;;44.70;16.69;99120.09;5091062;28;19912;-48
2021/08/01 11:04:24;;;;;;;;;;;;;;;44.06;17.04;99133.31;5090868;28;19931;-48
2021/08/01 11:06:50;;;;;;;;;;;;;;;43.23;17.00;99127.22;5092185;28;19912;-49
2021/08/01 11:09:15;;;;;;;;;;;;;;;44.21;16.31;99120.47;5092631;28;19973;-49
2021/08/01 11:11:44;;;;;;;;;;;;;;;43.88;16.56;99117.03;5092366;28;20427;-51
2021/08/01 11:14:19;;;;;;;;;;;;;;;42.73;17.63;99115.31;5092392;28;19944;-48
2021/08/01 11:16:48;;;;;;;;;;;;;;;42.88;17.79;99112.97;5090574;28;19986;-49
2021/08/01 11:19:32;;;;;;;;;;;;;;;43.31;17.38;99113.84;5091935;28;19924;-51
2021/08/01 11:21:57;;;;;;;;;;;;;;;42.85;17.25;99110.22;5092194;28;19912;-50
2021/08/01 11:24:23;;;;;;;;;;;;;;;42.37;18.07;99104.19;5092295;28;19985;-49
2021/08/01 11:27:07;;;;;;;;;;;;;;;42.88;16.89;99100.97;5092396;28;19930;-49
2021/08/01 11:29:46;;;;;;;;;;;;;;;43.79;16.54;99086.09;5092064;28;19969;-49
2021/08/01 11:32:11;;;;;;;;;;;;;;;43.95;16.83;99094.41;5090714;28;19912;-49
2021/08/01 11:34:36;;;;;;;;;;;;;;;43.53;16.01;99095.22;5090127;28;19912;-49
2021/08/01 11:37:20;;;;;;;;;;;;;;;43.20;16.38;99090.94;5091991;28;19924;-50
2021/08/01 11:39:49;;;;;;;;;;;;;;;43.91;16.12;99079.75;5092319;28;19994;-49
2021/08/01 11:42:23;;;;;;;;;;;;;;;43.71;16.62;99077.13;5091963;28;20344;-50
2021/08/01 11:45:01;;;;;;;;;;;;;;;43.42;16.51;99083.53;5073794;28;19920;-49
2021/08/01 11:47:27;;;;;;;;;;;;;;;43.21;16.73;99075.72;5091767;28;19922;-50
2021/08/01 11:49:52;;;;;;;;;;;;;;;43.84;15.47;99069.53;5091672;28;19912;-50
2021/08/01 11:52:34;;;;;;;;;;;;;;;43.30;15.82;99067.50;5092022;28;20011;-50
2021/08/01 11:55:00;;;;;;;;;;;;;;;43.37;16.03;99069.31;5092302;28;19912;-49
2021/08/01 11:57:29;;;;;;;;;;;;;;;43.28;15.94;99058.72;5091847;28;19927;-49
2021/08/01 11:59:54;;;;;;;;;;;;;;;43.70;15.54;99050.38;5091886;28;19919;-51
2021/08/01 12:02:19;;;;;;;;;;;;;;;43.42;15.47;99043.56;5090531;28;19912;-51
2021/08/01 12:04:51;;;;;;;;;;;;;;;43.32;14.17;99051.06;5090564;28;20336;-49
2021/08/01 12:07:17;;;;;;;;;;;;;;;43.08;14.75;99050.50;5091920;28;19988;-48
2021/08/01 12:09:42;;;;;;;;;;;;;;;43.81;14.63;99047.22;5073493;28;19912;-49
2021/08/01 12:12:07;;;;;;;;;;;;;;;44.23;13.94;99053.53;5091425;28;19912;-49
2021/08/01 12:14:33;;;;;;;;;;;;;;;44.11;14.28;99032.66;5091625;28;19916;-47
2021/08/01 12:16:59;;;;;;;;;;;;;;;44.43;13.68;99032.84;5091424;28;19924;-49
2021/08/01 12:19:25;;;;;;;;;;;;;;;44.15;14.14;99045.78;5091698;28;19930;-50
2021/08/01 12:21:55;;;;;;;;;;;;;;;44.05;12.61;99040.06;5091304;28;19912;-49
2021/08/01 12:24:26;;;;;;;;;;;;;;;43.21;15.26;99034.53;5091232;28;19912;-50
2021/08/01 12:26:51;;;;;;;;;;;;;;;43.30;15.76;99037.50;5091155;28;19991;-48
2021/08/01 12:29:35;;;;;;;;;;;;;;;43.89;15.27;99029.75;5091380;28;19983;-48
2021/08/01 12:32:00;;;;;;;;;;;;;;;44.11;14.26;99032.66;5091375;28;19912;-47
2021/08/01 12:34:26;;;;;;;;;;;;;;;43.39;14.66;99022.81;5091256;28;19923;-48
2021/08/01 12:36:51;;;;;;;;;;;;;;;43.27;15.31;99021.53;5090822;28;19955;-47
2021/08/01 12:39:18;;;;;;;;;;;;;;;43.62;15.11;99012.56;5091107;28;19912;-47
2021/08/01 12:41:44;;;;;;;;;;;;;;;44.00;15.11;99018.19;5089955;28;19912;-50
2021/08/01 12:44:16;;;;;;;;;;;;;;;43.29;14.92;99009.94;5106007;28;19918;-49
2021/08/01 12:46:41;;;;;;;;;;;;;;;43.89;14.62;99010.16;5093597;28;19919;-48